Time;durP1;ratioP1;P1;durP2;ratioP2;P2;SDS_P1;SDS_P2;PMS_P1;PMS_P2;Temp;Humidity;BMP_temperature;BMP_pressure;BME280_temperature;BME280_humidity;BME280_pressure;Samples;Min_cycle;Max_cycle;Signal;HPM_P1;HPM_P2
2022/05/25 00:04:27;;;;;;;18.50;5.10;;;24.00;62.20;;;;;;219063;1275;22761;-55
2022/05/25 00:09:31;;;;;;;11.90;3.70;;;24.00;62.20;;;;;;219161;1274;22541;-51
2022/05/25 00:14:36;;;;;;;14.40;3.30;;;24.00;62.20;;;;;;219167;1274;23531;-52
2022/05/25 00:20:01;;;;;;;7.90;3.00;;;24.00;62.20;;;;;;219183;1275;22735;-51
2022/05/25 00:25:12;;;;;;;8.90;2.90;;;24.00;62.00;;;;;;219228;1275;22537;-54
2022/05/25 00:30:17;;;;;;;8.40;3.20;;;24.00;61.90;;;;;;219202;1275;25336;-55
2022/05/25 00:35:22;;;;;;;12.40;3.80;;;24.00;61.90;;;;;;219277;1275;22560;-56
2022/05/25 00:40:38;;;;;;;20.00;5.10;;;24.00;62.00;;;;;;219269;1274;25470;-51
2022/05/25 00:45:46;;;;;;;14.50;3.80;;;24.00;62.20;;;;;;219240;1274;22569;-52
2022/05/25 00:56:17;;;;;;;4.90;2.10;;;24.00;61.60;;;;;;219480;1275;22544;-58
2022/05/25 01:07:44;;;;;;;4.20;2.40;;;23.90;61.70;;;;;;214114;1287;949503;-47
2022/05/25 01:13:15;;;;;;;7.20;1.90;;;24.00;61.60;;;;;;216641;1290;22557;-47
2022/05/25 01:18:45;;;;;;;3.90;2.20;;;23.90;61.40;;;;;;216627;1290;25043;-48
2022/05/25 01:24:27;;;;;;;4.00;2.20;;;23.90;61.50;;;;;;216558;1290;22562;-51
2022/05/25 01:29:56;;;;;;;3.80;1.80;;;23.90;61.40;;;;;;216053;1290;25385;-48
2022/05/25 01:35:09;;;;;;;4.20;1.90;;;23.90;61.80;;;;;;216498;1290;22602;-47
2022/05/25 01:40:34;;;;;;;3.20;2.10;;;23.90;61.20;;;;;;216523;1290;22683;-52
2022/05/25 01:45:52;;;;;;;3.50;2.00;;;23.90;61.60;;;;;;216437;1290;24474;-48
2022/05/25 01:51:01;;;;;;;3.90;2.10;;;23.90;61.20;;;;;;216783;1290;22566;-48
2022/05/25 01:56:08;;;;;;;4.80;2.50;;;23.90;61.40;;;;;;216957;1289;22588;-48
2022/05/25 02:01:20;;;;;;;4.80;2.10;;;23.90;61.40;;;;;;216440;1290;25366;-50
2022/05/25 02:07:28;;;;;;;2.90;2.10;;;23.90;61.70;;;;;;216815;1290;22662;-47
2022/05/25 02:13:20;;;;;;;3.80;2.00;;;23.90;61.30;;;;;;216156;1290;22608;-48
2022/05/25 02:19:02;;;;;;;3.50;2.10;;;23.90;61.10;;;;;;216476;1290;22551;-49
2022/05/25 02:24:21;;;;;;;3.50;2.20;;;23.90;61.20;;;;;;216149;1290;22585;-48
2022/05/25 02:29:38;;;;;;;3.70;2.10;;;23.90;61.10;;;;;;216812;1290;22557;-49
2022/05/25 02:34:49;;;;;;;4.30;2.30;;;23.90;60.80;;;;;;216869;1290;22598;-47
2022/05/25 02:39:54;;;;;;;4.80;2.50;;;23.90;61.10;;;;;;216449;1290;22604;-46
2022/05/25 02:44:58;;;;;;;6.50;2.30;;;23.90;61.20;;;;;;216808;1290;25479;-46
2022/05/25 02:50:02;;;;;;;3.50;2.00;;;23.90;61.10;;;;;;216256;1290;22599;-46
2022/05/25 02:55:06;;;;;;;2.80;1.90;;;23.90;60.90;;;;;;216615;1290;25957;-48
2022/05/25 03:00:12;;;;;;;4.10;1.80;;;23.90;61.10;;;;;;216699;1290;22615;-48
2022/05/25 03:05:15;;;;;;;2.80;1.90;;;23.90;61.10;;;;;;216621;1290;22671;-47
2022/05/25 03:10:19;;;;;;;4.40;1.80;;;23.90;60.90;;;;;;216837;1290;26002;-47
2022/05/25 03:15:23;;;;;;;3.20;1.80;;;23.90;61.10;;;;;;216935;1290;22583;-50
2022/05/25 03:20:28;;;;;;;3.10;2.00;;;23.80;60.90;;;;;;216972;1290;22589;-49
2022/05/25 03:25:31;;;;;;;2.30;1.50;;;23.80;61.00;;;;;;216824;1289;22602;-48
2022/05/25 03:30:36;;;;;;;2.90;1.80;;;23.90;61.10;;;;;;216847;1290;22631;-50
2022/05/25 03:35:40;;;;;;;2.70;1.90;;;23.80;60.60;;;;;;217020;1290;22598;-49
2022/05/25 03:40:44;;;;;;;3.00;1.70;;;23.80;61.00;;;;;;216904;1290;25570;-48
2022/05/25 03:45:48;;;;;;;3.20;1.90;;;23.90;61.40;;;;;;217007;1290;22592;-47
2022/05/25 03:50:51;;;;;;;3.20;1.90;;;23.80;61.10;;;;;;216823;1290;25426;-50
2022/05/25 03:55:55;;;;;;;3.60;2.10;;;23.80;61.30;;;;;;216836;1290;22591;-47
2022/05/25 04:00:59;;;;;;;3.60;2.10;;;23.80;61.00;;;;;;216869;1290;24250;-52
2022/05/25 04:06:03;;;;;;;4.90;2.50;;;23.80;61.00;;;;;;216683;1290;25471;-52
2022/05/25 04:11:08;;;;;;;3.50;1.90;;;23.80;61.00;;;;;;216596;1290;22592;-48
2022/05/25 04:16:12;;;;;;;2.70;1.80;;;23.80;61.00;;;;;;216796;1290;24306;-47
2022/05/25 04:21:16;;;;;;;2.90;1.80;;;23.80;60.90;;;;;;216281;1290;22566;-48
2022/05/25 04:26:19;;;;;;;4.40;2.30;;;23.80;60.90;;;;;;217000;1290;22630;-48
2022/05/25 04:31:23;;;;;;;3.70;2.00;;;23.80;60.80;;;;;;216843;1290;24315;-50
2022/05/25 04:36:31;;;;;;;2.90;1.90;;;23.80;60.80;;;;;;217003;1290;22580;-47
2022/05/25 04:41:37;;;;;;;2.60;1.80;;;23.80;60.80;;;;;;217096;1290;22572;-47
2022/05/25 04:46:40;;;;;;;3.50;2.00;;;23.80;60.80;;;;;;216899;1290;25748;-48
2022/05/25 04:51:44;;;;;;;2.90;1.70;;;23.80;60.80;;;;;;216750;1290;25507;-51
2022/05/25 05:02:10;;;;;;;2.70;1.70;;;23.70;60.80;;;;;;216679;1290;22687;-49
2022/05/25 05:07:16;;;;;;;3.90;1.80;;;23.80;60.80;;;;;;216473;1290;25419;-48
2022/05/25 05:12:20;;;;;;;3.10;1.80;;;23.80;61.10;;;;;;216843;1290;22595;-47
2022/05/25 05:17:24;;;;;;;4.20;1.70;;;23.80;60.80;;;;;;216858;1290;22704;-49
2022/05/25 05:23:00;;;;;;;4.80;1.70;;;23.70;61.00;;;;;;216082;1290;24215;-49
2022/05/25 05:28:09;;;;;;;3.40;2.10;;;23.80;60.80;;;;;;217052;1290;25516;-47
2022/05/25 05:33:17;;;;;;;4.40;1.90;;;23.80;60.70;;;;;;216789;1290;24245;-50
2022/05/25 05:38:22;;;;;;;2.60;1.60;;;23.80;60.80;;;;;;216908;1289;25250;-50
2022/05/25 05:43:27;;;;;;;5.90;1.90;;;23.80;60.70;;;;;;216670;1290;22579;-48
2022/05/25 05:48:37;;;;;;;3.20;1.80;;;23.80;60.90;;;;;;216907;1290;22576;-53
2022/05/25 05:53:44;;;;;;;4.90;1.90;;;23.80;61.00;;;;;;216900;1290;22585;-47
2022/05/25 05:58:51;;;;;;;3.50;2.00;;;23.80;61.30;;;;;;216584;1290;22561;-49
2022/05/25 06:03:55;;;;;;;8.00;1.90;;;23.80;61.70;;;;;;216550;1290;22570;-51
2022/05/25 06:09:03;;;;;;;6.80;2.10;;;23.80;62.10;;;;;;216952;1287;24298;-53
2022/05/25 06:14:09;;;;;;;9.00;2.70;;;23.80;62.30;;;;;;216726;1290;22786;-51
2022/05/25 06:19:26;;;;;;;7.60;2.30;;;23.90;62.00;;;;;;216161;1289;22567;-49
2022/05/25 06:24:36;;;;;;;7.40;2.10;;;23.90;62.10;;;;;;216789;1290;25420;-49
2022/05/25 06:29:47;;;;;;;7.70;1.80;;;23.90;62.70;;;;;;216392;1290;25311;-50
2022/05/25 06:34:52;;;;;;;10.90;3.10;;;23.90;62.30;;;;;;216346;1290;22735;-52
2022/05/25 06:39:56;;;;;;;10.40;2.30;;;24.00;62.10;;;;;;216237;1290;22752;-47
2022/05/25 06:44:59;;;;;;;5.30;1.90;;;24.00;62.20;;;;;;216912;1290;22572;-48
2022/05/25 06:50:07;;;;;;;16.20;2.20;;;24.00;62.40;;;;;;216579;1290;25291;-52
2022/05/25 06:55:12;;;;;;;10.00;2.50;;;23.90;62.50;;;;;;216570;1290;24339;-51
2022/05/25 07:00:35;;;;;;;9.40;2.40;;;23.90;62.40;;;;;;216425;1290;24342;-51
2022/05/25 07:05:39;;;;;;;15.10;2.80;;;23.90;62.00;;;;;;217706;1290;22650;-52
2022/05/25 07:10:45;;;;;;;9.30;2.40;;;23.90;61.90;;;;;;216497;1290;22849;-49
2022/05/25 07:15:58;;;;;;;6.70;1.90;;;23.90;62.10;;;;;;216852;1290;25282;-49
2022/05/25 07:21:17;;;;;;;8.70;2.60;;;23.90;62.20;;;;;;215918;1290;491626;-52
2022/05/25 07:26:25;;;;;;;5.80;2.20;;;23.90;62.30;;;;;;216466;1290;24260;-49
2022/05/25 07:31:37;;;;;;;10.90;2.70;;;23.90;62.50;;;;;;216598;1290;24342;-47
2022/05/25 07:36:46;;;;;;;6.50;2.30;;;23.90;62.40;;;;;;216857;1290;22583;-49
2022/05/25 07:41:53;;;;;;;7.00;2.40;;;23.90;62.30;;;;;;216212;1290;25544;-50
2022/05/25 07:47:00;;;;;;;4.80;2.50;;;23.80;62.10;;;;;;217056;1290;22858;-51
2022/05/25 07:52:04;;;;;;;7.30;2.70;;;23.90;62.10;;;;;;216601;1290;22573;-50
2022/05/25 07:57:08;;;;;;;3.60;1.90;;;23.90;62.10;;;;;;216702;1289;22595;-53
2022/05/25 08:07:47;;;;;;;7.00;2.30;;;23.80;62.10;;;;;;216859;1289;22767;-48
2022/05/25 08:12:55;;;;;;;4.20;2.20;;;23.90;62.00;;;;;;216994;1290;22582;-50
2022/05/25 08:17:59;;;;;;;4.10;2.10;;;23.90;61.60;;;;;;216429;1290;26682;-51
2022/05/25 08:23:05;;;;;;;4.40;1.70;;;23.90;61.40;;;;;;216965;1289;22559;-49
2022/05/25 08:28:09;;;;;;;3.10;1.80;;;23.80;61.50;;;;;;216585;1290;22557;-52
2022/05/25 08:33:17;;;;;;;7.70;2.00;;;23.80;61.30;;;;;;216546;1290;24450;-52
2022/05/25 08:38:24;;;;;;;4.60;2.00;;;23.80;61.20;;;;;;216677;1290;25750;-51
2022/05/25 08:43:47;;;;;;;5.40;2.30;;;23.80;61.00;;;;;;216751;1290;22558;-48
2022/05/25 08:48:53;;;;;;;3.70;1.90;;;23.80;61.10;;;;;;217140;1290;24453;-51
2022/05/25 08:54:10;;;;;;;5.40;2.20;;;23.80;61.00;;;;;;216543;1290;22546;-50
2022/05/25 08:59:25;;;;;;;6.60;1.80;;;23.90;60.90;;;;;;216932;1290;22563;-48
2022/05/25 09:04:58;;;;;;;6.10;1.70;;;23.80;60.80;;;;;;216902;1290;23984;-51
2022/05/25 09:10:10;;;;;;;3.60;2.20;;;23.80;61.00;;;;;;216956;1290;24321;-49
2022/05/25 09:15:22;;;;;;;7.20;2.50;;;23.80;60.50;;;;;;216081;1290;24459;-51
2022/05/25 09:20:36;;;;;;;12.10;2.60;;;23.90;60.90;;;;;;216891;1290;22585;-47
2022/05/25 09:25:43;;;;;;;7.50;2.00;;;23.90;60.70;;;;;;216844;1290;22586;-50
2022/05/25 09:30:57;;;;;;;9.30;2.30;;;23.90;60.50;;;;;;217044;1290;22762;-48
2022/05/25 09:36:11;;;;;;;7.10;2.60;;;23.90;60.60;;;;;;216202;1289;22717;-50
2022/05/25 09:41:25;;;;;;;4.00;2.10;;;23.90;60.50;;;;;;216700;1290;24255;-48
2022/05/25 09:46:43;;;;;;;3.90;1.80;;;23.90;60.30;;;;;;216846;1290;24341;-51
2022/05/25 09:51:52;;;;;;;5.60;2.00;;;24.00;60.30;;;;;;216627;1290;22557;-48
2022/05/25 09:57:23;;;;;;;4.30;1.80;;;24.00;60.30;;;;;;216723;1290;22551;-48
2022/05/25 10:02:41;;;;;;;5.70;1.70;;;24.00;60.00;;;;;;216917;1290;24492;-48
2022/05/25 10:08:00;;;;;;;2.90;1.70;;;24.10;60.10;;;;;;216358;1290;22673;-48
2022/05/25 10:13:15;;;;;;;5.40;2.10;;;24.10;60.00;;;;;;216562;1290;24249;-49
2022/05/25 10:18:43;;;;;;;6.10;2.00;;;24.00;59.90;;;;;;215867;1290;24285;-49
2022/05/25 10:23:49;;;;;;;2.70;1.60;;;24.00;59.90;;;;;;216639;1290;22593;-48
2022/05/25 10:28:58;;;;;;;4.80;1.60;;;24.00;60.20;;;;;;216160;1290;23951;-47
2022/05/25 10:39:59;;;;;;;3.70;2.20;;;24.00;60.00;;;;;;216068;1290;22576;-52
2022/05/25 10:45:28;;;;;;;5.20;2.30;;;24.00;60.10;;;;;;216704;1290;25352;-48
2022/05/25 10:50:55;;;;;;;3.70;1.80;;;24.00;60.00;;;;;;216780;1290;22686;-51
2022/05/25 10:56:34;;;;;;;5.10;2.20;;;24.00;60.00;;;;;;216548;1290;24244;-46
2022/05/25 11:02:36;;;;;;;3.20;1.70;;;24.00;60.00;;;;;;217099;1290;25457;-49
2022/05/25 11:07:44;;;;;;;5.10;2.10;;;24.00;59.70;;;;;;215419;1290;26737;-49
2022/05/25 11:13:14;;;;;;;2.80;1.70;;;24.00;59.60;;;;;;217194;1291;25821;-52
2022/05/25 11:18:29;;;;;;;5.40;2.00;;;24.10;59.50;;;;;;217089;1291;22707;-50
2022/05/25 11:24:07;;;;;;;3.00;1.70;;;24.10;59.40;;;;;;216460;1290;24323;-49
2022/05/25 11:29:47;;;;;;;6.50;2.50;;;24.10;59.30;;;;;;216375;1290;24461;-53
2022/05/25 11:35:33;;;;;;;2.70;1.70;;;24.10;59.80;;;;;;216950;1290;24330;-49
2022/05/25 11:40:53;;;;;;;3.90;1.70;;;24.20;59.80;;;;;;216189;1290;22580;-49
2022/05/25 11:46:04;;;;;;;4.20;2.20;;;24.10;60.00;;;;;;216832;1291;22644;-48
2022/05/25 11:51:30;;;;;;;3.70;2.00;;;24.00;60.40;;;;;;216675;1290;24292;-46
2022/05/25 11:57:04;;;;;;;5.40;2.20;;;24.10;60.40;;;;;;216960;1290;22598;-48
2022/05/25 12:02:38;;;;;;;4.30;1.40;;;24.00;60.80;;;;;;216391;1290;22609;-48
2022/05/25 12:07:48;;;;;;;2.50;1.40;;;24.00;61.00;;;;;;216456;1290;24057;-49
2022/05/25 12:13:12;;;;;;;3.40;1.70;;;24.00;61.30;;;;;;216554;1290;22588;-70
2022/05/25 12:18:30;;;;;;;4.20;1.70;;;24.00;62.00;;;;;;216960;1290;22586;-45
2022/05/25 12:23:40;;;;;;;3.60;1.90;;;23.90;61.50;;;;;;217238;1290;23937;-47
2022/05/25 12:28:47;;;;;;;4.10;2.10;;;24.00;62.20;;;;;;217095;1291;25276;-45
2022/05/25 12:33:54;;;;;;;4.30;1.70;;;24.00;62.20;;;;;;216857;1290;24356;-46
2022/05/25 12:38:58;;;;;;;5.30;1.70;;;24.00;62.30;;;;;;216998;1290;22642;-48
2022/05/25 12:49:34;;;;;;;4.50;1.70;;;23.90;62.40;;;;;;216929;1290;24282;-48
2022/05/25 12:54:42;;;;;;;3.30;2.00;;;24.00;63.00;;;;;;217041;1290;24253;-46
2022/05/25 12:59:46;;;;;;;2.60;1.60;;;24.00;63.30;;;;;;216258;1290;22657;-50
2022/05/25 13:05:02;;;;;;;3.10;1.50;;;23.90;62.90;;;;;;216224;1290;25403;-48
2022/05/25 13:10:20;;;;;;;2.30;1.40;;;23.90;62.50;;;;;;216039;1293;25292;-47
2022/05/25 13:15:50;;;;;;;4.70;2.10;;;23.90;63.30;;;;;;216128;1290;25277;-47
2022/05/25 13:20:56;;;;;;;3.70;1.60;;;24.00;63.30;;;;;;216138;1290;25283;-48
2022/05/25 13:26:07;;;;;;;3.90;1.90;;;24.00;63.20;;;;;;216639;1290;26691;-46
2022/05/25 13:31:55;;;;;;;3.10;1.50;;;24.00;63.70;;;;;;216077;1290;24523;-48
2022/05/25 13:37:04;;;;;;;3.90;1.60;;;24.00;63.30;;;;;;216572;1289;25458;-48
2022/05/25 13:42:15;;;;;;;2.50;1.60;;;24.10;63.20;;;;;;217120;1291;22561;-47
2022/05/25 13:47:22;;;;;;;2.70;1.70;;;24.00;63.70;;;;;;216965;1290;22664;-48
2022/05/25 13:52:31;;;;;;;7.60;1.70;;;24.00;63.70;;;;;;216476;1290;25280;-46
2022/05/25 13:57:51;;;;;;;2.70;1.40;;;24.00;63.50;;;;;;217073;1290;24452;-47
2022/05/25 14:03:19;;;;;;;4.20;2.00;;;24.00;63.70;;;;;;216984;1291;24052;-46
2022/05/25 14:14:33;;;;;;;5.50;2.00;;;24.00;63.50;;;;;;216659;1290;22572;-47
2022/05/25 14:19:49;;;;;;;2.90;1.60;;;23.90;63.40;;;;;;216983;1291;22664;-47
2022/05/25 14:24:56;;;;;;;4.10;1.80;;;24.00;63.80;;;;;;217055;1290;22602;-47
2022/05/25 14:30:25;;;;;;;4.70;2.10;;;24.00;63.40;;;;;;216678;1290;24268;-47
2022/05/25 14:35:32;;;;;;;3.40;1.90;;;24.00;63.30;;;;;;216900;1290;24293;-49
2022/05/25 14:41:25;;;;;;;2.60;1.60;;;23.90;63.40;;;;;;216967;1291;24450;-45
2022/05/25 14:46:38;;;;;;;6.40;1.80;;;24.00;63.70;;;;;;216367;1290;22721;-46
2022/05/25 14:51:45;;;;;;;6.10;1.90;;;24.00;63.50;;;;;;216677;1290;22661;-45
2022/05/25 14:56:58;;;;;;;2.80;1.60;;;24.00;64.40;;;;;;216333;1290;24262;-46
2022/05/25 15:02:04;;;;;;;4.50;2.00;;;24.10;64.10;;;;;;216066;1290;22548;-47
2022/05/25 15:07:24;;;;;;;10.30;2.80;;;24.10;64.60;;;;;;216420;1290;22611;-45
2022/05/25 15:12:52;;;;;;;10.30;3.30;;;24.10;64.80;;;;;;216120;1290;25272;-45
2022/05/25 15:23:40;;;;;;;10.60;2.80;;;24.10;64.50;;;;;;215436;1297;22567;-49
2022/05/25 15:28:46;;;;;;;14.30;4.20;;;24.20;65.20;;;;;;215451;1297;25219;-47
2022/05/25 15:33:49;;;;;;;12.60;3.20;;;24.30;66.60;;;;;;215152;1297;22579;-48
2022/05/25 15:38:56;;;;;;;10.70;3.10;;;24.30;67.70;;;;;;215019;1296;24285;-50
2022/05/25 15:44:03;;;;;;;12.30;2.60;;;24.30;67.40;;;;;;215119;1294;25334;-49
2022/05/25 15:49:26;;;;;;;6.10;2.50;;;24.30;67.20;;;;;;215707;1290;22729;-50
2022/05/25 15:54:35;;;;;;;8.20;2.80;;;24.30;66.90;;;;;;216419;1290;22656;-47
2022/05/25 15:59:42;;;;;;;5.00;2.40;;;24.40;66.80;;;;;;216578;1287;26560;-47
2022/05/25 16:04:53;;;;;;;8.80;2.30;;;24.40;66.70;;;;;;216250;1290;22698;-48
2022/05/25 16:10:01;;;;;;;6.90;2.50;;;24.40;66.40;;;;;;216402;1290;24412;-46
2022/05/25 16:15:08;;;;;;;9.80;3.10;;;24.40;66.20;;;;;;216385;1291;23978;-51
2022/05/25 16:20:14;;;;;;;5.90;2.10;;;24.30;66.30;;;;;;216648;1290;25314;-49
2022/05/25 16:25:26;;;;;;;9.60;2.50;;;24.40;66.60;;;;;;216915;1290;26588;-55
2022/05/25 16:30:29;;;;;;;5.00;2.30;;;24.40;66.10;;;;;;216211;1290;22653;-55
2022/05/25 16:35:35;;;;;;;10.10;2.50;;;24.30;65.90;;;;;;216371;1290;22706;-54
2022/05/25 16:40:42;;;;;;;4.40;1.90;;;24.20;64.60;;;;;;216589;1290;22595;-50
2022/05/25 16:45:45;;;;;;;5.80;1.80;;;24.00;62.40;;;;;;216569;1290;24414;-48
2022/05/25 16:50:49;;;;;;;3.40;1.60;;;23.90;61.30;;;;;;216201;1290;22574;-51
2022/05/25 16:55:54;;;;;;;3.70;1.90;;;23.90;60.60;;;;;;216825;1290;25399;-53
2022/05/25 17:00:58;;;;;;;5.50;2.20;;;23.80;60.00;;;;;;216375;1290;22608;-51
2022/05/25 17:06:03;;;;;;;2.80;1.50;;;23.70;59.50;;;;;;216199;1289;23939;-58
2022/05/25 17:11:08;;;;;;;4.10;1.80;;;23.70;59.50;;;;;;216252;1290;24337;-58
2022/05/25 17:16:14;;;;;;;4.70;1.70;;;23.60;59.30;;;;;;217122;1291;22679;-55
2022/05/25 17:21:20;;;;;;;4.30;1.50;;;23.60;59.20;;;;;;216549;1290;22728;-53
2022/05/25 17:26:25;;;;;;;3.70;1.90;;;23.60;59.20;;;;;;216283;1290;22611;-54
2022/05/25 17:31:30;;;;;;;4.00;1.50;;;23.60;58.90;;;;;;216693;1290;23223;-54
2022/05/25 17:42:00;;;;;;;7.40;1.60;;;23.50;59.00;;;;;;216872;1290;22706;-49
2022/05/25 17:47:06;;;;;;;5.30;1.60;;;23.50;58.60;;;;;;216340;1289;24874;-49
2022/05/25 17:52:10;;;;;;;5.50;1.60;;;23.50;57.70;;;;;;217097;1290;22585;-49
2022/05/25 17:57:13;;;;;;;4.20;1.80;;;23.50;57.30;;;;;;216383;1290;25462;-49
2022/05/25 18:02:19;;;;;;;6.90;1.70;;;23.50;57.30;;;;;;216646;1290;24358;-48
2022/05/25 18:07:26;;;;;;;3.60;1.90;;;23.60;57.20;;;;;;217170;1290;22603;-52
2022/05/25 18:12:37;;;;;;;2.70;1.80;;;23.60;57.90;;;;;;216809;1290;22659;-53
2022/05/25 18:17:51;;;;;;;7.50;2.50;;;23.60;58.80;;;;;;217187;1291;22661;-50
2022/05/25 18:22:57;;;;;;;4.30;1.90;;;23.60;59.60;;;;;;216874;1290;24549;-51
2022/05/25 18:28:03;;;;;;;3.20;1.80;;;23.60;58.90;;;;;;216097;1290;22628;-50
2022/05/25 18:33:07;;;;;;;3.70;1.60;;;23.50;57.10;;;;;;216844;1288;26803;-51
2022/05/25 18:38:14;;;;;;;6.30;2.00;;;23.50;56.90;;;;;;216606;1288;24464;-48
2022/05/25 18:43:20;;;;;;;3.20;1.70;;;23.50;56.70;;;;;;216487;1291;25362;-49
2022/05/25 18:48:28;;;;;;;5.20;2.00;;;23.50;56.60;;;;;;216446;1290;22563;-53
2022/05/25 18:53:34;;;;;;;19.30;2.30;;;23.40;57.10;;;;;;216902;1290;22714;-51
2022/05/25 18:58:38;;;;;;;7.00;2.00;;;23.40;57.00;;;;;;216911;1290;22591;-52
2022/05/25 19:03:43;;;;;;;8.60;2.70;;;23.40;56.40;;;;;;217012;1290;24420;-51
2022/05/25 19:08:47;;;;;;;10.80;2.20;;;23.40;56.40;;;;;;216667;1290;25718;-48
2022/05/25 19:13:51;;;;;;;6.70;2.30;;;23.40;57.50;;;;;;217212;1288;24340;-49
2022/05/25 19:19:04;;;;;;;7.60;2.20;;;23.40;57.10;;;;;;217010;1290;24474;-50
2022/05/25 19:24:10;;;;;;;4.60;2.10;;;23.40;57.30;;;;;;216134;1290;432214;-52
2022/05/25 19:29:14;;;;;;;10.90;2.10;;;23.40;57.60;;;;;;216839;1288;24271;-51
2022/05/25 19:34:21;;;;;;;9.70;2.20;;;23.40;57.60;;;;;;217021;1291;22706;-52
2022/05/25 19:39:30;;;;;;;6.30;2.10;;;23.40;57.80;;;;;;217121;1290;24174;-53
2022/05/25 19:44:41;;;;;;;7.00;1.90;;;23.40;58.20;;;;;;216850;1290;22585;-53
2022/05/25 19:55:08;;;;;;;7.90;2.30;;;23.40;57.90;;;;;;217070;1288;22557;-50
2022/05/25 20:00:21;;;;;;;13.40;2.60;;;23.40;58.30;;;;;;216843;1288;25479;-48
2022/05/25 20:05:34;;;;;;;11.00;2.10;;;23.50;58.90;;;;;;217048;1291;23993;-53
2022/05/25 20:10:45;;;;;;;5.80;1.70;;;23.50;59.30;;;;;;216331;1290;23972;-52
2022/05/25 20:15:52;;;;;;;8.50;2.00;;;23.50;59.30;;;;;;216809;1290;22615;-49
2022/05/25 20:21:02;;;;;;;6.00;1.90;;;23.40;59.00;;;;;;216211;1290;22625;-51
2022/05/25 20:26:09;;;;;;;3.80;1.60;;;23.40;59.00;;;;;;216705;1290;22559;-50
2022/05/25 20:31:17;;;;;;;6.10;1.90;;;23.40;58.40;;;;;;216423;1290;23058;-55
2022/05/25 20:36:27;;;;;;;8.70;2.00;;;23.40;59.20;;;;;;216660;1290;24443;-55
2022/05/25 20:41:42;;;;;;;5.20;1.90;;;23.40;58.60;;;;;;217599;1290;25487;-49
2022/05/25 20:46:57;;;;;;;7.40;1.90;;;23.40;59.20;;;;;;216777;1290;24236;-52
2022/05/25 20:52:02;;;;;;;5.10;1.60;;;23.40;59.10;;;;;;216063;1290;26602;-50
2022/05/25 20:57:13;;;;;;;6.70;2.70;;;23.40;58.80;;;;;;216569;1289;26004;-50
2022/05/25 21:02:17;;;;;;;5.90;1.40;;;23.40;58.80;;;;;;216213;1290;27973;-51
2022/05/25 21:07:23;;;;;;;5.80;1.90;;;23.40;59.50;;;;;;216246;1290;24289;-52
2022/05/25 21:12:30;;;;;;;6.10;2.20;;;23.40;59.80;;;;;;216941;1290;22621;-50
2022/05/25 21:17:54;;;;;;;14.50;2.70;;;23.40;60.00;;;;;;216357;1290;24253;-49
2022/05/25 21:23:03;;;;;;;19.20;3.10;;;23.40;61.50;;;;;;216645;1290;25488;-49
2022/05/25 21:28:14;;;;;;;13.60;2.90;;;23.40;62.90;;;;;;216871;1288;24325;-53
2022/05/25 21:33:34;;;;;;;9.90;2.60;;;23.40;63.50;;;;;;216487;1290;25448;-53
2022/05/25 21:38:47;;;;;;;7.60;2.70;;;23.40;63.00;;;;;;216368;1290;22568;-52
2022/05/25 21:43:52;;;;;;;16.40;2.50;;;23.50;62.40;;;;;;216108;1290;22631;-49
2022/05/25 21:54:25;;;;;;;19.20;3.40;;;23.60;64.40;;;;;;216543;1290;24195;-52
2022/05/25 21:59:29;;;;;;;7.30;2.60;;;23.60;64.30;;;;;;216571;1290;22595;-53
2022/05/25 22:04:42;;;;;;;9.30;2.90;;;23.50;63.90;;;;;;216754;1290;22579;-52
2022/05/25 22:09:50;;;;;;;6.20;2.50;;;23.60;63.80;;;;;;216550;1290;22779;-52
2022/05/25 22:15:22;;;;;;;8.90;2.60;;;23.60;63.60;;;;;;216240;1290;24321;-54
2022/05/25 22:20:43;;;;;;;5.30;2.10;;;23.60;63.50;;;;;;216455;1290;24308;-51
2022/05/25 22:25:47;;;;;;;7.70;2.10;;;23.50;63.50;;;;;;217212;1290;25393;-49
2022/05/25 22:30:51;;;;;;;5.30;2.20;;;23.60;63.70;;;;;;216444;1290;25346;-52
2022/05/25 22:35:55;;;;;;;6.20;2.00;;;23.50;63.70;;;;;;216323;1290;24385;-49
2022/05/25 22:40:59;;;;;;;6.30;2.10;;;23.60;63.30;;;;;;216908;1291;25410;-52
2022/05/25 22:46:02;;;;;;;7.40;2.50;;;23.60;62.70;;;;;;216392;1290;22583;-51
2022/05/25 22:51:08;;;;;;;6.50;1.90;;;23.60;62.90;;;;;;216366;1290;25484;-53
2022/05/25 22:56:13;;;;;;;5.40;2.00;;;23.50;62.70;;;;;;216632;1290;22588;-50
2022/05/25 23:01:18;;;;;;;5.50;2.00;;;23.50;62.70;;;;;;216597;1289;22569;-49
2022/05/25 23:06:22;;;;;;;4.80;2.00;;;23.50;62.60;;;;;;217173;1289;25475;-53
2022/05/25 23:11:25;;;;;;;5.00;2.10;;;23.50;62.60;;;;;;216515;1290;22749;-48
2022/05/25 23:16:30;;;;;;;9.60;2.30;;;23.50;62.50;;;;;;216938;1290;25260;-52
2022/05/25 23:21:42;;;;;;;6.00;2.10;;;23.40;62.10;;;;;;216949;1290;22637;-50
2022/05/25 23:26:56;;;;;;;6.80;1.70;;;23.50;62.30;;;;;;216836;1290;22562;-50
2022/05/25 23:32:27;;;;;;;;;;;23.40;62.90;;;;;;216584;1289;25387;-51
2022/05/25 23:37:33;;;;;;;5.90;2.20;;;23.40;62.20;;;;;;216841;1290;22569;-52
2022/05/25 23:47:59;;;;;;;5.80;1.80;;;23.40;62.40;;;;;;216582;1290;22602;-49
2022/05/25 23:53:03;;;;;;;7.00;2.50;;;23.30;62.20;;;;;;217079;1290;22874;-50
2022/05/25 23:58:08;;;;;;;5.50;1.70;;;23.30;62.10;;;;;;216705;1290;22672;-51
